createdAt,value
2023-03-23T15:59:12.925Z,98065.66
2023-03-23T16:01:58.486Z,98055.75
2023-03-23T16:04:46.289Z,98057.75
2023-03-23T16:07:34.018Z,98064.09
2023-03-23T16:10:23.745Z,98060.09
2023-03-23T16:13:09.256Z,98067.66
2023-03-23T16:15:54.551Z,98059.28
2023-03-23T16:18:39.793Z,98058.53
2023-03-23T16:21:25.526Z,98062.56
2023-03-23T16:24:11.479Z,98062.56
2023-03-23T16:26:56.927Z,98077.72
2023-03-23T16:30:00.377Z,98083.28
2023-03-23T16:32:47.959Z,98098.47
2023-03-23T16:35:33.421Z,98094.59
2023-03-23T16:38:19.088Z,98099.38
2023-03-23T16:41:04.603Z,98102.94
2023-03-23T16:43:50.242Z,98110.50
2023-03-23T16:46:35.523Z,98101.84
2023-03-23T16:49:20.769Z,98089.47
2023-03-23T16:52:06.142Z,98090.69
2023-03-23T16:54:51.418Z,98089.94
2023-03-23T16:57:38.241Z,98096.25
2023-03-23T17:00:25.261Z,98100.94
2023-03-23T17:03:11.341Z,98092.13
2023-03-23T17:05:59.838Z,98100.47
2023-03-23T17:08:44.933Z,98092.88
2023-03-23T17:11:30.586Z,98102.00
2023-03-23T17:14:16.283Z,98107.91
2023-03-23T17:17:01.817Z,98115.78
2023-03-23T17:19:47.172Z,98125.38
2023-03-23T17:22:32.687Z,98122.59
2023-03-23T17:25:18.168Z,98113.28
2023-03-23T17:28:05.788Z,98109.28
2023-03-23T17:30:53.393Z,98102.16
2023-03-23T17:33:38.477Z,98104.16
2023-03-23T17:36:24.458Z,98104.94
2023-03-23T17:39:10.253Z,98113.00
2023-03-23T17:41:55.543Z,98114.53
2023-03-23T17:44:41.903Z,98119.66
2023-03-23T17:47:27.616Z,98122.91
2023-03-23T17:50:13.353Z,98115.78
2023-03-23T17:53:00.494Z,98120.88
2023-03-23T17:55:46.442Z,98112.38
2023-03-23T17:58:32.735Z,98123.09
2023-03-23T18:01:18.313Z,98126.97
2023-03-23T18:04:05.215Z,98122.16
2023-03-23T18:06:50.827Z,98118.13
2023-03-23T18:09:36.302Z,98135.66
2023-03-23T18:12:21.600Z,98135.47
2023-03-23T18:15:07.895Z,98145.81
2023-03-23T18:17:53.087Z,98152.28
2023-03-23T18:20:38.597Z,98138.84
2023-03-23T18:23:23.872Z,98147.19
2023-03-23T18:26:12.732Z,98150.75
2023-03-23T18:28:58.696Z,98151.53
2023-03-23T18:31:44.352Z,98142.41
2023-03-23T18:34:31.332Z,98125.69
2023-03-23T18:37:17.624Z,98130.94
2023-03-23T18:43:46.495Z,98129.72
2023-03-23T18:46:32.004Z,98130.19
2023-03-23T18:49:17.810Z,98130.63
2023-03-23T18:52:03.489Z,98134.66
2023-03-23T18:54:49.147Z,98130.31
2023-03-23T18:57:34.545Z,98130.00
2023-03-23T19:00:21.638Z,98134.34
2023-03-23T19:03:11.116Z,98127.53
2023-03-23T19:06:00.337Z,98126.44
2023-03-23T19:08:47.505Z,98136.81
2023-03-23T19:11:32.928Z,98132.94
2023-03-23T19:14:19.571Z,98131.56
2023-03-23T19:17:05.066Z,98128.75
2023-03-23T19:19:53.993Z,98124.56
2023-03-23T19:22:40.618Z,98131.06
2023-03-23T19:25:27.155Z,98132.91
2023-03-23T19:29:03.311Z,98138.63
2023-03-23T19:31:21.798Z,98137.53
2023-03-23T19:34:08.751Z,98132.09
2023-03-23T19:37:04.150Z,98135.50
2023-03-23T19:40:09.136Z,98122.78
2023-03-23T19:43:05.954Z,98126.50
2023-03-23T19:45:52.077Z,98118.75
2023-03-23T19:48:39.745Z,98122.75
2023-03-23T19:51:27.597Z,98130.50
2023-03-23T19:54:14.072Z,98134.19
2023-03-23T19:57:01.245Z,98126.00
2023-03-23T19:59:47.165Z,98132.00
2023-03-23T20:02:33.164Z,98130.44
2023-03-23T20:05:18.601Z,98136.16
2023-03-23T20:08:04.938Z,98134.25
2023-03-23T20:10:50.259Z,98134.72
2023-03-23T20:13:35.897Z,98139.19
2023-03-23T20:16:21.841Z,98134.84
2023-03-23T20:19:08.749Z,98123.88
2023-03-23T20:21:54.165Z,98141.78
2023-03-23T20:24:40.099Z,98144.25
2023-03-23T20:27:25.951Z,98143.16
2023-03-23T20:30:12.320Z,98144.84
2023-03-23T20:33:00.785Z,98141.28
2023-03-23T20:35:46.397Z,98141.72
2023-03-23T20:38:35.365Z,98144.63
2023-03-23T20:41:20.720Z,98147.91
2023-03-23T20:44:14.071Z,98140.00
2023-03-23T20:47:02.622Z,98157.94
2023-03-23T20:49:52.986Z,98148.47
2023-03-23T20:52:41.047Z,98147.69
2023-03-23T20:55:27.601Z,98148.13
2023-03-23T20:58:14.593Z,98138.25
2023-03-23T21:01:03.014Z,98143.50
2023-03-23T21:03:52.098Z,98143.16
2023-03-23T21:06:37.347Z,98141.63
2023-03-23T21:09:23.267Z,98136.53
2023-03-23T21:12:10.282Z,98127.41
2023-03-23T21:14:55.835Z,98133.41
2023-03-23T21:17:41.542Z,98129.88
2023-03-23T21:20:27.172Z,98124.75
2023-03-23T21:23:14.728Z,98126.00
2023-03-23T21:26:02.785Z,98122.13
2023-03-23T21:28:50.761Z,98118.53
2023-03-23T21:31:37.326Z,98117.44
2023-03-23T21:34:22.894Z,98124.25
2023-03-23T21:37:08.341Z,98114.34
2023-03-23T21:39:53.432Z,98108.03
2023-03-23T21:42:42.258Z,98105.69
2023-03-23T21:45:28.959Z,98098.59
2023-03-23T21:48:15.430Z,98101.81
2023-03-23T21:51:13.373Z,98103.06
2023-03-23T21:53:59.031Z,98095.16
2023-03-23T21:56:44.459Z,98093.63
2023-03-23T21:59:29.702Z,98084.97
2023-03-23T22:02:15.833Z,98086.50
2023-03-23T22:05:01.423Z,98082.19
2023-03-23T22:07:47.786Z,98077.38
2023-03-23T22:10:33.328Z,98084.19
2023-03-23T22:13:19.252Z,98084.97
2023-03-23T22:16:07.614Z,98094.06
2023-03-23T22:18:55.236Z,98083.72
2023-03-23T22:21:41.186Z,98078.63
2023-03-23T22:24:27.161Z,98076.16
2023-03-23T22:27:12.609Z,98076.16
2023-03-23T22:29:57.842Z,98076.16
2023-03-23T22:32:43.362Z,98074.16
2023-03-23T22:35:28.989Z,98073.38
2023-03-23T22:38:14.658Z,98063.81
2023-03-23T22:41:02.346Z,98063.06
2023-03-23T22:43:48.183Z,98058.25
2023-03-23T22:46:33.992Z,98058.25
2023-03-23T22:49:19.207Z,98053.47
2023-03-23T22:52:04.838Z,98043.13
2023-03-23T22:54:50.392Z,98036.78
2023-03-23T22:57:36.037Z,98036.78
2023-03-23T23:00:21.801Z,98032.78
2023-03-23T23:03:07.671Z,98030.78
2023-03-23T23:05:54.718Z,98022.44
2023-03-23T23:08:41.368Z,98023.22
2023-03-23T23:11:27.093Z,98016.88
2023-03-23T23:14:12.750Z,98011.34
2023-03-23T23:16:58.362Z,98019.66
2023-03-23T23:19:43.681Z,98006.53
2023-03-23T23:22:29.145Z,98012.09
2023-03-23T23:25:14.472Z,98005.00
2023-03-23T23:28:01.677Z,97993.41
2023-03-23T23:30:48.438Z,98008.09
2023-03-23T23:33:34.164Z,98006.09
2023-03-23T23:36:21.224Z,97997.00
2023-03-23T23:39:06.893Z,97986.63
2023-03-23T23:41:52.129Z,97987.41
2023-03-23T23:44:38.548Z,97981.84
2023-03-23T23:47:23.855Z,97976.28
2023-03-23T23:50:12.170Z,97977.53
2023-03-23T23:52:58.756Z,97974.28
2023-03-23T23:55:44.103Z,97969.97
2023-03-23T23:58:29.857Z,97969.19
